sensor_id;sensor_type;location;lat;lon;timestamp;pressure;altitude;pressure_sealevel;temperature;humidity
73003;BME280;61184;54.356;-8.550;2023-02-21T00:02:23;101370.31;;;20.96;35.09
73003;BME280;61184;54.356;-8.550;2023-02-21T00:04:59;101364.00;;;21.31;34.88
73003;BME280;61184;54.356;-8.550;2023-02-21T00:07:29;101371.32;;;21.00;34.99
73003;BME280;61184;54.356;-8.550;2023-02-21T00:09:40;101369.63;;;21.02;34.94
73003;BME280;61184;54.356;-8.550;2023-02-21T00:12:15;101369.86;;;21.00;34.96
73003;BME280;61184;54.356;-8.550;2023-02-21T00:14:31;101369.94;;;20.98;35.01
73003;BME280;61184;54.356;-8.550;2023-02-21T00:16:56;101373.22;;;21.12;35.13
73003;BME280;61184;54.356;-8.550;2023-02-21T00:19:22;101371.18;;;20.85;35.19
73003;BME280;61184;54.356;-8.550;2023-02-21T00:21:47;101370.14;;;20.70;35.34
73003;BME280;61184;54.356;-8.550;2023-02-21T00:24:14;101367.93;;;20.84;35.49
73003;BME280;61184;54.356;-8.550;2023-02-21T00:26:41;101370.33;;;20.82;35.16
73003;BME280;61184;54.356;-8.550;2023-02-21T00:29:04;101372.50;;;20.81;35.19
73003;BME280;61184;54.356;-8.550;2023-02-21T00:31:29;101369.93;;;21.12;35.06
73003;BME280;61184;54.356;-8.550;2023-02-21T00:33:55;101376.88;;;21.04;35.16
73003;BME280;61184;54.356;-8.550;2023-02-21T00:36:20;101373.55;;;20.45;35.33
73003;BME280;61184;54.356;-8.550;2023-02-21T00:38:45;101374.57;;;21.06;35.14
73003;BME280;61184;54.356;-8.550;2023-02-21T00:41:12;101374.31;;;20.78;35.16
73003;BME280;61184;54.356;-8.550;2023-02-21T00:43:37;101374.52;;;20.78;35.16
73003;BME280;61184;54.356;-8.550;2023-02-21T00:46:02;101373.28;;;20.79;35.13
73003;BME280;61184;54.356;-8.550;2023-02-21T00:48:27;101374.94;;;20.81;35.10
73003;BME280;61184;54.356;-8.550;2023-02-21T00:50:53;101376.34;;;20.85;35.01
73003;BME280;61184;54.356;-8.550;2023-02-21T00:53:18;101373.83;;;20.93;34.90
73003;BME280;61184;54.356;-8.550;2023-02-21T00:55:44;101376.68;;;20.44;35.61
73003;BME280;61184;54.356;-8.550;2023-02-21T00:58:10;101372.36;;;20.59;35.44
73003;BME280;61184;54.356;-8.550;2023-02-21T01:00:59;101365.79;;;20.74;35.17
73003;BME280;61184;54.356;-8.550;2023-02-21T01:03:00;101363.16;;;21.21;35.20
73003;BME280;61184;54.356;-8.550;2023-02-21T01:05:26;101360.18;;;20.73;35.15
73003;BME280;61184;54.356;-8.550;2023-02-21T01:07:51;101359.44;;;20.77;35.08
73003;BME280;61184;54.356;-8.550;2023-02-21T01:10:16;101356.75;;;20.70;35.18
73003;BME280;61184;54.356;-8.550;2023-02-21T01:12:42;101353.01;;;20.99;35.10
73003;BME280;61184;54.356;-8.550;2023-02-21T01:15:08;101351.71;;;20.72;35.15
73003;BME280;61184;54.356;-8.550;2023-02-21T01:17:33;101340.45;;;20.80;35.03
73003;BME280;61184;54.356;-8.550;2023-02-21T01:19:59;101343.10;;;20.73;35.12
73003;BME280;61184;54.356;-8.550;2023-02-21T01:22:33;101343.31;;;20.90;35.17
73003;BME280;61184;54.356;-8.550;2023-02-21T01:24:50;101341.48;;;20.81;34.99
73003;BME280;61184;54.356;-8.550;2023-02-21T01:27:15;101340.13;;;20.73;35.08
73003;BME280;61184;54.356;-8.550;2023-02-21T01:29:40;101342.21;;;20.66;35.17
73003;BME280;61184;54.356;-8.550;2023-02-21T01:32:18;101338.04;;;20.83;34.92
73003;BME280;61184;54.356;-8.550;2023-02-21T01:34:31;101340.93;;;20.94;35.11
73003;BME280;61184;54.356;-8.550;2023-02-21T01:36:59;101344.26;;;20.69;35.09
73003;BME280;61184;54.356;-8.550;2023-02-21T01:39:22;101340.56;;;20.42;35.14
73003;BME280;61184;54.356;-8.550;2023-02-21T01:41:49;101334.38;;;20.99;35.01
73003;BME280;61184;54.356;-8.550;2023-02-21T01:46:39;101328.50;;;21.15;35.09
73003;BME280;61184;54.356;-8.550;2023-02-21T01:49:06;101330.74;;;20.64;35.14
73003;BME280;61184;54.356;-8.550;2023-02-21T01:51:33;101331.25;;;20.64;35.14
73003;BME280;61184;54.356;-8.550;2023-02-21T01:53:55;101323.29;;;20.77;34.94
73003;BME280;61184;54.356;-8.550;2023-02-21T01:56:21;101323.11;;;20.65;35.12
73003;BME280;61184;54.356;-8.550;2023-02-21T01:58:47;101319.20;;;20.72;34.99
73003;BME280;61184;54.356;-8.550;2023-02-21T02:01:15;101317.15;;;20.76;34.92
73003;BME280;61184;54.356;-8.550;2023-02-21T02:03:38;101311.96;;;20.64;35.08
73003;BME280;61184;54.356;-8.550;2023-02-21T02:06:05;101310.74;;;20.64;35.05
73003;BME280;61184;54.356;-8.550;2023-02-21T02:08:29;101307.74;;;20.62;35.07
73003;BME280;61184;54.356;-8.550;2023-02-21T02:11:02;101304.31;;;20.70;34.95
73003;BME280;61184;54.356;-8.550;2023-02-21T02:15:53;101299.71;;;20.80;34.81
73003;BME280;61184;54.356;-8.550;2023-02-21T02:25:39;101283.34;;;21.04;34.78
73003;BME280;61184;54.356;-8.550;2023-02-21T02:35:20;101276.20;;;20.65;34.93
73003;BME280;61184;54.356;-8.550;2023-02-21T02:38:05;101274.38;;;20.70;34.84
73003;BME280;61184;54.356;-8.550;2023-02-21T02:40:04;101273.43;;;20.76;34.74
73003;BME280;61184;54.356;-8.550;2023-02-21T02:44:55;101269.01;;;20.54;35.06
73003;BME280;61184;54.356;-8.550;2023-02-21T02:47:18;101264.99;;;20.71;34.80
73003;BME280;61184;54.356;-8.550;2023-02-21T02:49:42;101265.07;;;20.53;35.04
73003;BME280;61184;54.356;-8.550;2023-02-21T02:52:08;101267.21;;;20.62;34.90
73003;BME280;61184;54.356;-8.550;2023-02-21T02:55:01;101264.94;;;20.62;34.91
73003;BME280;61184;54.356;-8.550;2023-02-21T02:56:58;101262.76;;;20.72;34.77
73003;BME280;61184;54.356;-8.550;2023-02-21T02:59:25;101260.61;;;20.51;35.04
73003;BME280;61184;54.356;-8.550;2023-02-21T03:02:06;101255.13;;;20.59;34.90
73003;BME280;61184;54.356;-8.550;2023-02-21T03:06:46;101254.62;;;20.59;34.92
73003;BME280;61184;54.356;-8.550;2023-02-21T03:09:10;101254.52;;;20.88;34.81
73003;BME280;61184;54.356;-8.550;2023-02-21T03:11:30;101251.28;;;20.84;34.85
73003;BME280;61184;54.356;-8.550;2023-02-21T03:13:58;101248.35;;;20.77;34.97
73003;BME280;61184;54.356;-8.550;2023-02-21T03:16:35;101244.33;;;20.43;35.08
73003;BME280;61184;54.356;-8.550;2023-02-21T03:18:49;101241.29;;;20.44;35.09
73003;BME280;61184;54.356;-8.550;2023-02-21T03:21:20;101239.95;;;20.51;34.98
73003;BME280;61184;54.356;-8.550;2023-02-21T03:23:39;101236.99;;;20.50;34.98
73003;BME280;61184;54.356;-8.550;2023-02-21T03:26:05;101230.34;;;20.63;34.79
73003;BME280;61184;54.356;-8.550;2023-02-21T03:28:28;101232.52;;;20.75;34.97
73003;BME280;61184;54.356;-8.550;2023-02-21T03:30:55;101228.46;;;20.50;34.97
73003;BME280;61184;54.356;-8.550;2023-02-21T03:33:19;101227.16;;;20.49;34.96
73003;BME280;61184;54.356;-8.550;2023-02-21T03:35:45;101221.94;;;20.40;35.05
73003;BME280;61184;54.356;-8.550;2023-02-21T03:38:14;101216.36;;;20.56;34.87
73003;BME280;61184;54.356;-8.550;2023-02-21T03:40:36;101209.73;;;20.57;34.86
73003;BME280;61184;54.356;-8.550;2023-02-21T03:43:03;101202.87;;;20.54;34.86
73003;BME280;61184;54.356;-8.550;2023-02-21T03:45:28;101200.80;;;20.45;35.01
73003;BME280;61184;54.356;-8.550;2023-02-21T03:47:52;101199.23;;;20.44;34.99
73003;BME280;61184;54.356;-8.550;2023-02-21T03:50:17;101203.35;;;20.60;35.08
73003;BME280;61184;54.356;-8.550;2023-02-21T03:52:45;101202.93;;;20.73;34.91
73003;BME280;61184;54.356;-8.550;2023-02-21T03:55:09;101199.83;;;20.42;35.00
73003;BME280;61184;54.356;-8.550;2023-02-21T03:57:34;101194.83;;;20.96;34.88
73003;BME280;61184;54.356;-8.550;2023-02-21T04:00:00;101185.31;;;20.94;34.91
73003;BME280;61184;54.356;-8.550;2023-02-21T04:02:25;101175.01;;;20.58;35.07
73003;BME280;61184;54.356;-8.550;2023-02-21T04:04:50;101173.63;;;20.84;35.03
73003;BME280;61184;54.356;-8.550;2023-02-21T04:07:17;101167.54;;;20.66;34.93
73003;BME280;61184;54.356;-8.550;2023-02-21T04:09:56;101167.72;;;20.57;35.08
73003;BME280;61184;54.356;-8.550;2023-02-21T04:12:07;101168.69;;;20.37;35.00
73003;BME280;61184;54.356;-8.550;2023-02-21T04:14:42;101164.66;;;20.61;34.99
73003;BME280;61184;54.356;-8.550;2023-02-21T04:17:00;101166.30;;;20.50;35.14
73003;BME280;61184;54.356;-8.550;2023-02-21T04:19:35;101164.04;;;20.58;35.03
73003;BME280;61184;54.356;-8.550;2023-02-21T04:21:50;101164.32;;;20.41;34.91
73003;BME280;61184;54.356;-8.550;2023-02-21T04:24:18;101164.86;;;20.62;34.91
73003;BME280;61184;54.356;-8.550;2023-02-21T04:26:40;101164.32;;;20.50;35.11
73003;BME280;61184;54.356;-8.550;2023-02-21T04:29:07;101164.38;;;20.39;34.91
73003;BME280;61184;54.356;-8.550;2023-02-21T04:31:31;101164.44;;;20.38;35.27
73003;BME280;61184;54.356;-8.550;2023-02-21T04:33:56;101160.56;;;20.74;35.05
73003;BME280;61184;54.356;-8.550;2023-02-21T04:36:21;101155.19;;;20.48;35.10
73003;BME280;61184;54.356;-8.550;2023-02-21T04:38:47;101152.38;;;20.46;35.10
73003;BME280;61184;54.356;-8.550;2023-02-21T04:41:12;101144.42;;;20.55;34.96
73003;BME280;61184;54.356;-8.550;2023-02-21T04:43:40;101139.98;;;20.48;35.07
73003;BME280;61184;54.356;-8.550;2023-02-21T04:46:03;101136.92;;;20.20;35.12
73003;BME280;61184;54.356;-8.550;2023-02-21T04:48:29;101132.42;;;20.74;35.06
73003;BME280;61184;54.356;-8.550;2023-02-21T04:51:00;101135.65;;;20.18;35.14
73003;BME280;61184;54.356;-8.550;2023-02-21T04:53:22;101129.10;;;20.50;35.01
73003;BME280;61184;54.356;-8.550;2023-02-21T04:55:45;101127.10;;;20.23;35.04
73003;BME280;61184;54.356;-8.550;2023-02-21T04:58:16;101121.12;;;20.38;34.82
73003;BME280;61184;54.356;-8.550;2023-02-21T05:00:36;101120.42;;;20.31;34.92
73003;BME280;61184;54.356;-8.550;2023-02-21T05:03:02;101119.98;;;20.29;34.97
73003;BME280;61184;54.356;-8.550;2023-02-21T05:05:27;101119.30;;;20.84;34.84
73003;BME280;61184;54.356;-8.550;2023-02-21T05:07:57;101117.80;;;20.47;35.05
73003;BME280;61184;54.356;-8.550;2023-02-21T05:10:20;101116.69;;;20.64;34.80
73003;BME280;61184;54.356;-8.550;2023-02-21T05:12:44;101119.20;;;20.40;35.11
73003;BME280;61184;54.356;-8.550;2023-02-21T05:15:11;101113.55;;;20.32;34.88
73003;BME280;61184;54.356;-8.550;2023-02-21T05:17:35;101115.95;;;20.77;34.91
73003;BME280;61184;54.356;-8.550;2023-02-21T05:20:01;101119.38;;;20.76;34.94
73003;BME280;61184;54.356;-8.550;2023-02-21T05:22:25;101116.63;;;20.56;34.87
73003;BME280;61184;54.356;-8.550;2023-02-21T05:24:51;101118.41;;;20.76;34.91
73003;BME280;61184;54.356;-8.550;2023-02-21T05:27:18;101115.38;;;20.68;35.05
73003;BME280;61184;54.356;-8.550;2023-02-21T05:29:45;101112.97;;;20.48;34.95
73003;BME280;61184;54.356;-8.550;2023-02-21T05:32:09;101110.32;;;20.67;35.01
73003;BME280;61184;54.356;-8.550;2023-02-21T05:34:34;101104.67;;;20.49;34.92
73003;BME280;61184;54.356;-8.550;2023-02-21T05:37:00;101099.17;;;20.57;34.80
73003;BME280;61184;54.356;-8.550;2023-02-21T05:39:24;101096.92;;;20.68;34.99
73003;BME280;61184;54.356;-8.550;2023-02-21T05:41:50;101092.85;;;20.37;35.07
73003;BME280;61184;54.356;-8.550;2023-02-21T05:44:15;101090.76;;;20.76;34.88
73003;BME280;61184;54.356;-8.550;2023-02-21T05:46:59;101089.68;;;20.36;35.06
73003;BME280;61184;54.356;-8.550;2023-02-21T05:49:06;101086.34;;;20.39;35.01
73003;BME280;61184;54.356;-8.550;2023-02-21T05:51:46;101083.13;;;20.47;34.91
73003;BME280;61184;54.356;-8.550;2023-02-21T05:54:00;101083.18;;;20.78;34.80
73003;BME280;61184;54.356;-8.550;2023-02-21T05:56:22;101086.42;;;20.53;34.80
73003;BME280;61184;54.356;-8.550;2023-02-21T05:59:00;101089.57;;;20.14;34.99
73003;BME280;61184;54.356;-8.550;2023-02-21T06:01:22;101086.37;;;20.68;34.87
73003;BME280;61184;54.356;-8.550;2023-02-21T06:03:39;101084.99;;;20.31;35.08
73003;BME280;61184;54.356;-8.550;2023-02-21T06:06:04;101082.99;;;20.74;34.81
73003;BME280;61184;54.356;-8.550;2023-02-21T06:08:29;101085.73;;;20.03;35.14
73003;BME280;61184;54.356;-8.550;2023-02-21T06:10:55;101083.64;;;20.63;34.91
73003;BME280;61184;54.356;-8.550;2023-02-21T06:13:35;101081.46;;;20.60;34.92
73003;BME280;61184;54.356;-8.550;2023-02-21T06:15:46;101081.97;;;20.68;34.82
73003;BME280;61184;54.356;-8.550;2023-02-21T06:18:12;101075.85;;;20.33;34.98
73003;BME280;61184;54.356;-8.550;2023-02-21T06:20:37;101066.14;;;20.33;34.98
73003;BME280;61184;54.356;-8.550;2023-02-21T06:23:02;101065.25;;;20.25;35.04
73003;BME280;61184;54.356;-8.550;2023-02-21T06:25:31;101059.42;;;20.40;34.86
73003;BME280;61184;54.356;-8.550;2023-02-21T06:27:53;101058.63;;;20.53;34.96
73003;BME280;61184;54.356;-8.550;2023-02-21T06:30:18;101059.65;;;20.59;34.91
73003;BME280;61184;54.356;-8.550;2023-02-21T06:32:45;101057.30;;;20.31;34.95
73003;BME280;61184;54.356;-8.550;2023-02-21T06:35:09;101054.31;;;20.58;34.85
73003;BME280;61184;54.356;-8.550;2023-02-21T06:37:35;101048.15;;;20.39;34.81
73003;BME280;61184;54.356;-8.550;2023-02-21T06:40:00;101047.03;;;20.32;34.90
73003;BME280;61184;54.356;-8.550;2023-02-21T06:42:26;101041.08;;;20.50;34.99
73003;BME280;61184;54.356;-8.550;2023-02-21T06:45:00;101037.77;;;20.57;34.89
73003;BME280;61184;54.356;-8.550;2023-02-21T06:47:17;101034.24;;;20.25;35.01
73003;BME280;61184;54.356;-8.550;2023-02-21T06:49:43;101030.04;;;20.17;34.76
73003;BME280;61184;54.356;-8.550;2023-02-21T06:52:08;101030.54;;;19.97;35.04
73003;BME280;61184;54.356;-8.550;2023-02-21T06:54:33;101032.00;;;20.55;34.89
73003;BME280;61184;54.356;-8.550;2023-02-21T06:56:59;101032.93;;;20.55;34.85
73003;BME280;61184;54.356;-8.550;2023-02-21T06:59:28;101028.14;;;20.43;34.73
73003;BME280;61184;54.356;-8.550;2023-02-21T07:01:52;101025.58;;;20.27;34.92
73003;BME280;61184;54.356;-8.550;2023-02-21T07:04:16;101024.81;;;20.59;34.77
73003;BME280;61184;54.356;-8.550;2023-02-21T07:06:40;101024.83;;;20.47;34.93
73003;BME280;61184;54.356;-8.550;2023-02-21T07:09:06;101025.44;;;20.31;34.84
73003;BME280;61184;54.356;-8.550;2023-02-21T07:11:33;101022.57;;;20.55;34.86
73003;BME280;61184;54.356;-8.550;2023-02-21T07:13:59;101022.34;;;20.51;35.01
73003;BME280;61184;54.356;-8.550;2023-02-21T07:16:22;101024.68;;;20.12;35.01
73003;BME280;61184;54.356;-8.550;2023-02-21T07:19:00;101022.81;;;20.17;35.09
73003;BME280;61184;54.356;-8.550;2023-02-21T07:21:19;101023.94;;;20.37;35.25
73003;BME280;61184;54.356;-8.550;2023-02-21T07:23:39;101019.89;;;20.71;35.24
73003;BME280;61184;54.356;-8.550;2023-02-21T07:26:05;101017.94;;;20.45;35.38
73003;BME280;61184;54.356;-8.550;2023-02-21T07:28:30;101014.93;;;20.62;35.19
73003;BME280;61184;54.356;-8.550;2023-02-21T07:30:55;101009.16;;;20.41;35.90
73003;BME280;61184;54.356;-8.550;2023-02-21T07:33:21;101011.87;;;19.85;36.38
73003;BME280;61184;54.356;-8.550;2023-02-21T07:35:46;101014.73;;;20.01;36.05
73003;BME280;61184;54.356;-8.550;2023-02-21T07:38:22;101015.13;;;19.99;35.93
73003;BME280;61184;54.356;-8.550;2023-02-21T07:40:37;101018.40;;;20.14;35.97
73003;BME280;61184;54.356;-8.550;2023-02-21T07:45:29;101012.89;;;20.37;35.51
73003;BME280;61184;54.356;-8.550;2023-02-21T07:47:54;101011.64;;;19.74;35.66
73003;BME280;61184;54.356;-8.550;2023-02-21T07:50:19;101008.49;;;19.89;35.71
73003;BME280;61184;54.356;-8.550;2023-02-21T07:52:45;101004.12;;;20.31;35.43
73003;BME280;61184;54.356;-8.550;2023-02-21T07:55:10;101000.18;;;20.10;35.64
73003;BME280;61184;54.356;-8.550;2023-02-21T07:57:36;101000.98;;;20.31;35.66
73003;BME280;61184;54.356;-8.550;2023-02-21T08:00:01;101000.13;;;20.00;35.68
73003;BME280;61184;54.356;-8.550;2023-02-21T08:02:27;100996.42;;;19.94;35.73
73003;BME280;61184;54.356;-8.550;2023-02-21T08:04:52;100994.11;;;19.88;35.78
73003;BME280;61184;54.356;-8.550;2023-02-21T08:07:18;100987.55;;;19.68;35.68
73003;BME280;61184;54.356;-8.550;2023-02-21T08:09:44;100987.90;;;19.95;35.61
73003;BME280;61184;54.356;-8.550;2023-02-21T08:12:08;100984.00;;;19.97;35.25
73003;BME280;61184;54.356;-8.550;2023-02-21T08:14:39;100980.29;;;20.09;35.36
73003;BME280;61184;54.356;-8.550;2023-02-21T08:17:00;100978.97;;;19.99;35.46
73003;BME280;61184;54.356;-8.550;2023-02-21T08:19:25;100982.63;;;19.88;35.57
73003;BME280;61184;54.356;-8.550;2023-02-21T08:21:51;100984.49;;;19.73;35.46
73003;BME280;61184;54.356;-8.550;2023-02-21T08:24:17;100983.62;;;20.03;35.33
73003;BME280;61184;54.356;-8.550;2023-02-21T08:26:59;100982.51;;;19.88;35.47
73003;BME280;61184;54.356;-8.550;2023-02-21T08:29:07;100985.46;;;19.94;35.37
73003;BME280;61184;54.356;-8.550;2023-02-21T08:31:34;100982.26;;;19.86;35.44
73003;BME280;61184;54.356;-8.550;2023-02-21T08:33:59;100981.95;;;19.88;35.09
73003;BME280;61184;54.356;-8.550;2023-02-21T08:36:31;100980.80;;;20.02;35.21
73003;BME280;61184;54.356;-8.550;2023-02-21T08:38:49;100981.46;;;20.12;35.41
73003;BME280;61184;54.356;-8.550;2023-02-21T08:41:15;100981.32;;;19.67;35.32
73003;BME280;61184;54.356;-8.550;2023-02-21T08:43:40;100979.09;;;20.00;35.21
73003;BME280;61184;54.356;-8.550;2023-02-21T08:46:05;100972.71;;;19.88;35.32
73003;BME280;61184;54.356;-8.550;2023-02-21T08:48:55;100974.22;;;19.89;35.31
73003;BME280;61184;54.356;-8.550;2023-02-21T08:50:57;100975.96;;;19.83;35.06
73003;BME280;61184;54.356;-8.550;2023-02-21T08:53:22;100981.81;;;20.01;35.11
73003;BME280;61184;54.356;-8.550;2023-02-21T08:55:48;100981.89;;;20.07;35.00
73003;BME280;61184;54.356;-8.550;2023-02-21T08:58:13;100980.25;;;19.91;35.22
73003;BME280;61184;54.356;-8.550;2023-02-21T09:00:38;100983.86;;;19.92;35.19
73003;BME280;61184;54.356;-8.550;2023-02-21T09:03:04;100982.53;;;20.33;34.98
73003;BME280;61184;54.356;-8.550;2023-02-21T09:05:31;100982.41;;;20.30;34.99
73003;BME280;61184;54.356;-8.550;2023-02-21T09:07:56;100979.59;;;19.81;35.30
73003;BME280;61184;54.356;-8.550;2023-02-21T09:10:21;100980.56;;;20.02;35.05
73003;BME280;61184;54.356;-8.550;2023-02-21T09:12:46;100980.78;;;19.92;35.15
73003;BME280;61184;54.356;-8.550;2023-02-21T09:15:18;100981.89;;;20.10;34.88
73003;BME280;61184;54.356;-8.550;2023-02-21T09:17:37;100980.31;;;19.76;35.06
73003;BME280;61184;54.356;-8.550;2023-02-21T09:20:04;100981.98;;;19.67;35.14
73003;BME280;61184;54.356;-8.550;2023-02-21T09:22:28;100984.00;;;19.95;35.08
73003;BME280;61184;54.356;-8.550;2023-02-21T09:25:04;100983.74;;;20.01;35.00
73003;BME280;61184;54.356;-8.550;2023-02-21T09:27:18;100978.20;;;19.90;35.16
73003;BME280;61184;54.356;-8.550;2023-02-21T09:29:47;100973.69;;;19.95;35.06
73003;BME280;61184;54.356;-8.550;2023-02-21T09:32:10;100972.78;;;19.50;35.32
73003;BME280;61184;54.356;-8.550;2023-02-21T09:34:36;100974.13;;;20.05;34.93
73003;BME280;61184;54.356;-8.550;2023-02-21T09:37:03;100968.31;;;19.93;35.07
73003;BME280;61184;54.356;-8.550;2023-02-21T09:39:40;100967.95;;;19.89;35.10
73003;BME280;61184;54.356;-8.550;2023-02-21T09:41:52;100968.59;;;20.32;34.86
73003;BME280;61184;54.356;-8.550;2023-02-21T09:44:26;100964.53;;;19.91;35.04
73003;BME280;61184;54.356;-8.550;2023-02-21T09:46:45;100963.25;;;19.83;35.16
73003;BME280;61184;54.356;-8.550;2023-02-21T09:49:23;100958.35;;;20.06;34.86
73003;BME280;61184;54.356;-8.550;2023-02-21T09:51:34;100956.11;;;20.25;34.89
73003;BME280;61184;54.356;-8.550;2023-02-21T09:54:01;100953.26;;;19.74;35.24
73003;BME280;61184;54.356;-8.550;2023-02-21T09:57:00;100952.72;;;19.68;35.00
73003;BME280;61184;54.356;-8.550;2023-02-21T09:58:57;100952.36;;;20.04;34.83
73003;BME280;61184;54.356;-8.550;2023-02-21T10:01:29;100946.81;;;19.78;34.84
73003;BME280;61184;54.356;-8.550;2023-02-21T10:03:47;100944.56;;;19.75;35.18
73003;BME280;61184;54.356;-8.550;2023-02-21T10:06:16;100938.81;;;19.78;35.14
73003;BME280;61184;54.356;-8.550;2023-02-21T10:08:38;100931.94;;;19.67;34.96
73003;BME280;61184;54.356;-8.550;2023-02-21T10:11:06;100933.34;;;19.80;35.06
73003;BME280;61184;54.356;-8.550;2023-02-21T10:13:34;100928.01;;;19.88;34.98
73003;BME280;61184;54.356;-8.550;2023-02-21T10:15:51;100927.38;;;19.82;35.04
73003;BME280;61184;54.356;-8.550;2023-02-21T10:18:22;100923.06;;;19.82;35.03
73003;BME280;61184;54.356;-8.550;2023-02-21T10:20:43;100925.13;;;19.76;35.07
73003;BME280;61184;54.356;-8.550;2023-02-21T10:23:12;100919.06;;;19.68;35.16
73003;BME280;61184;54.356;-8.550;2023-02-21T10:25:41;100916.32;;;19.91;34.82
73003;BME280;61184;54.356;-8.550;2023-02-21T10:27:56;100915.64;;;19.98;34.75
73003;BME280;61184;54.356;-8.550;2023-02-21T10:30:28;100916.02;;;20.22;34.72
73003;BME280;61184;54.356;-8.550;2023-02-21T10:32:47;100909.41;;;19.91;34.80
73003;BME280;61184;54.356;-8.550;2023-02-21T10:35:22;100907.78;;;20.02;34.62
73003;BME280;61184;54.356;-8.550;2023-02-21T10:38:02;100908.29;;;19.97;34.69
73003;BME280;61184;54.356;-8.550;2023-02-21T10:40:09;100906.64;;;19.56;34.59
73003;BME280;61184;54.356;-8.550;2023-02-21T10:42:33;100907.95;;;19.92;34.72
73003;BME280;61184;54.356;-8.550;2023-02-21T10:44:56;100908.70;;;19.91;34.76
73003;BME280;61184;54.356;-8.550;2023-02-21T10:47:25;100912.93;;;19.98;34.74
73003;BME280;61184;54.356;-8.550;2023-02-21T10:49:49;100908.03;;;19.70;35.04
73003;BME280;61184;54.356;-8.550;2023-02-21T10:52:13;100900.10;;;19.99;35.04
73003;BME280;61184;54.356;-8.550;2023-02-21T10:54:36;100896.66;;;19.93;34.77
73003;BME280;61184;54.356;-8.550;2023-02-21T10:57:03;100899.37;;;19.94;34.72
73003;BME280;61184;54.356;-8.550;2023-02-21T10:59:41;100893.70;;;19.92;34.73
73003;BME280;61184;54.356;-8.550;2023-02-21T11:01:53;100891.18;;;19.72;35.02
73003;BME280;61184;54.356;-8.550;2023-02-21T11:04:26;100886.31;;;19.66;35.09
73003;BME280;61184;54.356;-8.550;2023-02-21T11:06:45;100885.67;;;19.68;34.71
73003;BME280;61184;54.356;-8.550;2023-02-21T11:09:27;100882.93;;;19.83;34.79
73003;BME280;61184;54.356;-8.550;2023-02-21T11:11:37;100879.12;;;19.68;34.68
73003;BME280;61184;54.356;-8.550;2023-02-21T11:16:25;100873.80;;;19.80;34.84
73003;BME280;61184;54.356;-8.550;2023-02-21T11:19:03;100876.16;;;19.93;34.61
73003;BME280;61184;54.356;-8.550;2023-02-21T11:21:18;100873.26;;;19.81;34.77
73003;BME280;61184;54.356;-8.550;2023-02-21T11:23:46;100870.03;;;20.11;34.70
73003;BME280;61184;54.356;-8.550;2023-02-21T11:26:09;100870.46;;;19.99;34.56
73003;BME280;61184;54.356;-8.550;2023-02-21T11:28:40;100862.98;;;19.81;34.74
73003;BME280;61184;54.356;-8.550;2023-02-21T11:31:11;100861.54;;;20.10;34.70
73003;BME280;61184;54.356;-8.550;2023-02-21T11:33:23;100862.19;;;19.88;34.65
73003;BME280;61184;54.356;-8.550;2023-02-21T11:36:07;100856.83;;;19.79;34.77
73003;BME280;61184;54.356;-8.550;2023-02-21T11:38:29;100853.38;;;19.90;34.61
73003;BME280;61184;54.356;-8.550;2023-02-21T11:40:54;100853.20;;;20.09;34.64
73003;BME280;61184;54.356;-8.550;2023-02-21T11:45:31;100849.52;;;19.85;34.66
73003;BME280;61184;54.356;-8.550;2023-02-21T11:48:01;100852.09;;;19.68;34.87
73003;BME280;61184;54.356;-8.550;2023-02-21T11:50:26;100851.71;;;19.79;34.74
73003;BME280;61184;54.356;-8.550;2023-02-21T11:52:54;100850.88;;;20.04;34.72
73003;BME280;61184;54.356;-8.550;2023-02-21T11:55:16;100851.23;;;19.72;34.81
73003;BME280;61184;54.356;-8.550;2023-02-21T11:57:45;100851.94;;;19.64;34.92
73003;BME280;61184;54.356;-8.550;2023-02-21T12:02:43;100849.80;;;19.67;34.87
73003;BME280;61184;54.356;-8.550;2023-02-21T12:05:12;100845.00;;;19.85;34.62
73003;BME280;61184;54.356;-8.550;2023-02-21T12:07:27;100838.61;;;19.95;34.48
73003;BME280;61184;54.356;-8.550;2023-02-21T12:09:52;100837.46;;;19.64;34.85
73003;BME280;61184;54.356;-8.550;2023-02-21T12:12:34;100831.35;;;19.85;34.63
73003;BME280;61184;54.356;-8.550;2023-02-21T12:14:52;100836.57;;;19.77;34.71
73003;BME280;61184;54.356;-8.550;2023-02-21T12:17:12;100827.65;;;20.09;34.60
73003;BME280;61184;54.356;-8.550;2023-02-21T12:22:02;100821.95;;;19.82;34.62
73003;BME280;61184;54.356;-8.550;2023-02-21T12:24:36;100822.76;;;19.85;34.61
73003;BME280;61184;54.356;-8.550;2023-02-21T12:26:50;100823.31;;;19.90;34.51
73003;BME280;61184;54.356;-8.550;2023-02-21T12:29:47;100825.58;;;19.72;34.79
73003;BME280;61184;54.356;-8.550;2023-02-21T12:31:47;100817.53;;;19.74;34.73
73003;BME280;61184;54.356;-8.550;2023-02-21T12:34:08;100817.90;;;19.75;34.70
73003;BME280;61184;54.356;-8.550;2023-02-21T12:38:57;100815.46;;;19.75;34.71
73003;BME280;61184;54.356;-8.550;2023-02-21T12:41:27;100805.23;;;19.62;34.90
73003;BME280;61184;54.356;-8.550;2023-02-21T12:43:50;100803.83;;;20.04;34.66
73003;BME280;61184;54.356;-8.550;2023-02-21T12:46:14;100794.32;;;19.66;34.84
73003;BME280;61184;54.356;-8.550;2023-02-21T12:48:38;100792.47;;;19.90;34.82
73003;BME280;61184;54.356;-8.550;2023-02-21T12:51:02;100786.72;;;19.66;34.85
73003;BME280;61184;54.356;-8.550;2023-02-21T12:53:33;100779.97;;;19.92;34.78
73003;BME280;61184;54.356;-8.550;2023-02-21T12:56:05;100782.08;;;19.65;34.84
73003;BME280;61184;54.356;-8.550;2023-02-21T12:58:29;100778.29;;;19.72;34.74
73003;BME280;61184;54.356;-8.550;2023-02-21T13:03:14;100771.45;;;19.60;34.59
73003;BME280;61184;54.356;-8.550;2023-02-21T13:05:37;100766.60;;;19.81;34.63
73003;BME280;61184;54.356;-8.550;2023-02-21T13:08:00;100764.73;;;20.02;34.71
73003;BME280;61184;54.356;-8.550;2023-02-21T13:10:25;100753.47;;;19.65;34.85
73003;BME280;61184;54.356;-8.550;2023-02-21T13:12:53;100750.23;;;19.71;34.78